createdAt,value
2023-05-22T00:01:06.756Z,5.95
2023-05-22T00:03:33.932Z,5.93
2023-05-22T00:06:00.734Z,5.88
2023-05-22T00:08:29.640Z,5.35
2023-05-22T00:10:56.750Z,6.65
2023-05-22T00:13:23.537Z,6.20
2023-05-22T00:15:50.393Z,6.43
2023-05-22T00:18:17.365Z,6.93
2023-05-22T00:20:46.725Z,5.22
2023-05-22T00:23:15.696Z,6.18
2023-05-22T00:25:43.195Z,6.10
2023-05-22T00:28:12.044Z,5.57
2023-05-22T00:30:38.979Z,4.43
2023-05-22T00:33:06.348Z,5.95
2023-05-22T00:35:33.743Z,5.85
2023-05-22T00:38:04.019Z,5.55
2023-05-22T00:40:31.032Z,5.25
2023-05-22T00:42:57.876Z,5.50
2023-05-22T00:45:24.682Z,4.68
2023-05-22T00:47:52.300Z,4.38
2023-05-22T00:50:19.437Z,4.72
2023-05-22T00:52:47.538Z,4.97
2023-05-22T00:55:15.257Z,4.93
2023-05-22T00:57:42.300Z,4.28
2023-05-22T01:00:13.836Z,4.35
2023-05-22T01:02:43.337Z,5.03
2023-05-22T01:05:13.299Z,4.63
2023-05-22T01:07:40.648Z,3.90
2023-05-22T01:10:08.174Z,4.75
2023-05-22T01:12:57.421Z,4.75
2023-05-22T01:15:35.578Z,4.30
2023-05-22T01:18:19.974Z,3.55
2023-05-22T01:21:10.411Z,3.85
2023-05-22T01:23:40.339Z,3.63
2023-05-22T01:26:12.921Z,3.15
2023-05-22T01:28:56.089Z,3.55
2023-05-22T01:31:31.600Z,3.78
2023-05-22T01:34:01.130Z,3.85
2023-05-22T01:36:31.430Z,3.88
2023-05-22T01:39:01.698Z,3.53
2023-05-22T01:41:29.981Z,3.35
2023-05-22T01:43:56.945Z,3.03
2023-05-22T01:46:30.420Z,3.58
2023-05-22T01:48:58.007Z,3.72
2023-05-22T01:51:36.855Z,3.40
2023-05-22T01:54:24.486Z,2.65
2023-05-22T01:57:07.714Z,3.22
2023-05-22T01:59:45.543Z,2.70
2023-05-22T02:02:17.951Z,3.28
2023-05-22T02:04:56.070Z,2.95
2023-05-22T02:07:25.142Z,3.72
2023-05-22T02:09:54.040Z,3.53
2023-05-22T02:12:22.004Z,3.92
2023-05-22T02:14:49.488Z,3.10
2023-05-22T02:17:18.222Z,3.50
2023-05-22T02:19:45.311Z,3.83
2023-05-22T02:22:14.898Z,3.85
2023-05-22T02:24:47.776Z,3.33
2023-05-22T02:27:14.532Z,3.60
2023-05-22T02:29:41.357Z,3.42
2023-05-22T02:32:08.696Z,3.58
2023-05-22T02:34:35.431Z,3.15
2023-05-22T02:37:05.401Z,3.55
2023-05-22T02:39:32.104Z,3.95
2023-05-22T02:41:58.863Z,3.38
2023-05-22T02:44:25.663Z,4.38
2023-05-22T02:46:52.495Z,4.03
2023-05-22T02:49:19.288Z,3.78
2023-05-22T02:51:47.942Z,3.35
2023-05-22T02:54:16.065Z,3.28
2023-05-22T02:56:43.715Z,3.30
2023-05-22T02:59:10.607Z,3.88
2023-05-22T03:01:38.842Z,4.18
2023-05-22T03:04:06.750Z,3.45
2023-05-22T03:06:35.416Z,4.30
2023-05-22T03:09:04.802Z,3.97
2023-05-22T03:11:32.256Z,3.92
2023-05-22T03:13:58.985Z,3.92
2023-05-22T03:16:26.781Z,3.72
2023-05-22T03:19:17.018Z,3.30
2023-05-22T03:21:48.499Z,4.07
2023-05-22T03:24:15.187Z,3.33
2023-05-22T03:26:42.097Z,2.92
2023-05-22T03:29:08.826Z,3.00
2023-05-22T03:31:36.098Z,2.72
2023-05-22T03:34:03.767Z,3.63
2023-05-22T03:36:34.007Z,3.08
2023-05-22T03:39:00.968Z,3.67
2023-05-22T03:41:27.732Z,3.03
2023-05-22T03:43:54.421Z,3.00
2023-05-22T03:46:21.437Z,3.33
2023-05-22T03:48:48.350Z,3.53
2023-05-22T03:51:15.082Z,3.50
2023-05-22T03:53:41.838Z,3.88
2023-05-22T03:56:08.583Z,2.28
2023-05-22T03:58:35.328Z,3.42
2023-05-22T04:01:02.103Z,4.05
2023-05-22T04:03:29.027Z,3.78
2023-05-22T04:05:57.053Z,3.78
2023-05-22T04:08:23.842Z,3.88
2023-05-22T04:10:50.555Z,3.85
2023-05-22T04:13:17.539Z,3.20
2023-05-22T04:15:46.907Z,2.95
2023-05-22T04:18:14.252Z,3.38
2023-05-22T04:20:41.156Z,3.28
2023-05-22T04:23:08.103Z,3.25
2023-05-22T04:25:34.845Z,2.33
2023-05-22T04:28:04.391Z,2.75
2023-05-22T04:30:34.229Z,2.70
2023-05-22T04:33:01.847Z,2.45
2023-05-22T04:35:29.723Z,2.50
2023-05-22T04:37:57.494Z,2.28
2023-05-22T04:40:24.213Z,2.17
2023-05-22T04:42:54.380Z,2.10
2023-05-22T04:45:25.418Z,2.80
2023-05-22T04:47:53.313Z,2.75
2023-05-22T04:50:20.724Z,2.80
2023-05-22T04:52:48.128Z,3.22
2023-05-22T04:55:14.894Z,3.03
2023-05-22T04:57:44.731Z,3.00
2023-05-22T05:00:13.945Z,3.20
2023-05-22T05:02:41.462Z,2.72
2023-05-22T05:05:08.771Z,2.40
2023-05-22T05:07:43.610Z,2.60
2023-05-22T05:10:10.619Z,2.63
2023-05-22T05:12:37.439Z,2.63
2023-05-22T05:15:04.807Z,2.75
2023-05-22T05:17:31.651Z,2.65
2023-05-22T05:19:58.324Z,4.00
2023-05-22T05:22:25.570Z,4.50
2023-05-22T05:24:52.313Z,6.38
2023-05-22T05:27:19.182Z,3.90
2023-05-22T05:29:46.805Z,4.60
2023-05-22T05:32:14.067Z,4.85
2023-05-22T05:34:41.561Z,4.20
2023-05-22T05:37:09.113Z,4.57
2023-05-22T05:39:35.957Z,4.93
2023-05-22T05:42:02.654Z,4.53
2023-05-22T05:44:29.384Z,4.35
2023-05-22T05:46:56.057Z,3.05
2023-05-22T05:49:22.767Z,3.50
2023-05-22T05:51:49.491Z,2.60
2023-05-22T05:54:16.170Z,2.42
2023-05-22T05:56:43.040Z,2.67
2023-05-22T05:59:10.096Z,2.17
2023-05-22T06:01:38.796Z,2.88
2023-05-22T06:04:05.872Z,2.60
2023-05-22T06:06:36.568Z,3.50
2023-05-22T06:09:07.362Z,2.25
2023-05-22T06:11:34.195Z,2.85
2023-05-22T06:14:08.417Z,3.30
2023-05-22T06:16:35.189Z,2.35
2023-05-22T06:19:02.169Z,2.13
2023-05-22T06:21:29.112Z,2.10
2023-05-22T06:23:55.792Z,2.47
2023-05-22T06:26:23.654Z,2.63
2023-05-22T06:28:51.920Z,3.05
2023-05-22T06:31:18.920Z,3.03
2023-05-22T06:33:45.821Z,2.63
2023-05-22T06:36:12.714Z,2.70
2023-05-22T06:38:39.465Z,2.67
2023-05-22T06:41:06.542Z,2.63
2023-05-22T06:43:33.548Z,3.30
2023-05-22T06:46:00.484Z,2.60
2023-05-22T06:48:27.244Z,3.28
2023-05-22T06:50:53.962Z,2.33
2023-05-22T06:53:20.617Z,3.40
2023-05-22T06:55:47.400Z,2.63
2023-05-22T06:58:14.107Z,3.08
2023-05-22T07:00:40.986Z,3.10
2023-05-22T07:03:07.824Z,2.80
2023-05-22T07:05:34.780Z,2.50
2023-05-22T07:08:01.684Z,2.05
2023-05-22T07:10:28.598Z,3.20
2023-05-22T07:12:55.393Z,3.70
2023-05-22T07:15:22.085Z,2.47
2023-05-22T07:17:49.398Z,3.60
2023-05-22T07:20:16.953Z,2.55
2023-05-22T07:22:43.768Z,2.10
2023-05-22T07:25:10.678Z,2.22
2023-05-22T07:27:37.474Z,2.03
2023-05-22T07:30:04.538Z,2.50
2023-05-22T07:32:31.405Z,2.40
2023-05-22T07:34:58.156Z,2.55
2023-05-22T07:37:25.107Z,2.22
2023-05-22T07:39:51.800Z,2.47
2023-05-22T07:42:18.799Z,2.92
2023-05-22T07:44:45.509Z,3.22
2023-05-22T07:47:12.160Z,2.63
2023-05-22T07:49:38.859Z,3.13
2023-05-22T07:52:05.964Z,3.47
2023-05-22T07:54:32.649Z,2.67
2023-05-22T07:57:03.325Z,2.42
2023-05-22T07:59:29.997Z,2.58
2023-05-22T08:01:58.367Z,2.40
2023-05-22T08:04:26.253Z,2.13
2023-05-22T08:06:53.151Z,2.25
2023-05-22T08:09:21.326Z,2.42
2023-05-22T08:11:48.185Z,2.33
2023-05-22T08:14:15.021Z,2.30
2023-05-22T08:16:41.798Z,2.15
2023-05-22T08:19:09.130Z,2.92
2023-05-22T08:21:37.741Z,2.17
2023-05-22T08:24:04.700Z,2.67
2023-05-22T08:26:33.407Z,2.60
2023-05-22T08:29:00.730Z,2.10
2023-05-22T08:31:29.340Z,2.42
2023-05-22T08:34:02.773Z,2.60
2023-05-22T08:36:34.214Z,2.83
2023-05-22T08:39:01.617Z,2.83
2023-05-22T08:41:29.416Z,2.42
2023-05-22T08:43:56.147Z,2.88
2023-05-22T08:46:26.571Z,2.20
2023-05-22T08:48:57.134Z,2.35
2023-05-22T08:51:29.329Z,2.55
2023-05-22T08:53:57.476Z,2.40
2023-05-22T08:56:25.528Z,2.42
2023-05-22T08:58:54.413Z,3.33
2023-05-22T09:01:21.788Z,3.28
2023-05-22T09:03:51.430Z,2.58
2023-05-22T09:06:18.687Z,2.40
2023-05-22T09:08:46.186Z,2.67
2023-05-22T09:11:13.360Z,2.53
2023-05-22T09:13:41.341Z,2.53
2023-05-22T09:16:13.463Z,2.53
2023-05-22T09:18:42.216Z,2.40
2023-05-22T09:21:21.710Z,2.13
2023-05-22T09:23:59.203Z,2.33
2023-05-22T09:26:29.456Z,2.47
2023-05-22T09:28:57.316Z,2.17
2023-05-22T09:31:24.129Z,2.78
2023-05-22T09:33:51.016Z,2.33
2023-05-22T09:36:17.993Z,2.30
2023-05-22T09:38:45.209Z,2.33
2023-05-22T09:41:11.958Z,2.78
2023-05-22T09:43:38.764Z,2.70
2023-05-22T09:46:05.585Z,2.30
2023-05-22T09:48:36.746Z,2.60
2023-05-22T09:51:04.341Z,2.47
2023-05-22T09:53:33.753Z,2.50
2023-05-22T09:56:02.172Z,2.30
2023-05-22T09:58:31.299Z,3.17
2023-05-22T10:00:59.379Z,2.28
2023-05-22T10:03:27.649Z,2.00
2023-05-22T10:05:58.827Z,2.90
2023-05-22T10:08:28.862Z,2.20
2023-05-22T10:10:56.234Z,2.50
2023-05-22T10:13:25.359Z,2.03
2023-05-22T10:15:53.355Z,2.00
2023-05-22T10:18:20.401Z,1.90
2023-05-22T10:20:49.030Z,2.20
2023-05-22T10:23:18.721Z,2.60
2023-05-22T10:25:45.996Z,2.10
2023-05-22T10:28:19.562Z,2.17
2023-05-22T10:31:10.053Z,2.53
2023-05-22T10:33:45.103Z,2.13
2023-05-22T10:36:24.578Z,2.30
2023-05-22T10:39:27.220Z,2.35
2023-05-22T10:41:54.196Z,2.45
2023-05-22T10:44:22.380Z,2.28
2023-05-22T10:46:53.013Z,1.80
2023-05-22T10:49:23.967Z,1.95
2023-05-22T10:51:57.133Z,2.10
2023-05-22T10:54:43.035Z,2.17
2023-05-22T10:57:12.260Z,1.98
2023-05-22T10:59:38.978Z,2.40
2023-05-22T11:02:07.736Z,2.10
2023-05-22T11:04:36.306Z,2.42
2023-05-22T11:07:05.182Z,2.10
2023-05-22T11:09:45.837Z,2.17
2023-05-22T11:12:28.459Z,2.10
2023-05-22T11:14:59.121Z,2.50
2023-05-22T11:17:29.939Z,2.03
2023-05-22T11:20:06.203Z,1.83
2023-05-22T11:22:36.032Z,2.50
2023-05-22T11:25:11.348Z,2.30
2023-05-22T11:27:40.716Z,2.20
2023-05-22T11:30:09.600Z,2.20
2023-05-22T11:32:37.837Z,1.95
2023-05-22T11:35:10.944Z,2.35
2023-05-22T11:40:08.859Z,2.33
2023-05-22T11:42:36.307Z,2.45
2023-05-22T11:45:04.159Z,2.10
2023-05-22T11:47:31.858Z,2.10
2023-05-22T11:50:00.034Z,2.20
2023-05-22T11:52:31.659Z,2.13
2023-05-22T11:54:58.386Z,2.13
2023-05-22T11:57:25.256Z,2.03
2023-05-22T11:59:51.918Z,1.98
2023-05-22T12:02:19.653Z,2.17
2023-05-22T12:04:46.739Z,2.17
2023-05-22T12:07:13.502Z,2.40
2023-05-22T12:09:40.845Z,2.35
2023-05-22T12:12:11.552Z,2.83
2023-05-22T12:14:38.471Z,2.13
2023-05-22T12:17:05.349Z,2.10
2023-05-22T12:19:32.642Z,1.80
2023-05-22T12:21:59.651Z,2.38
2023-05-22T12:24:26.542Z,1.90
2023-05-22T12:26:56.817Z,1.73
2023-05-22T12:29:23.797Z,2.22
2023-05-22T12:31:51.036Z,2.05
2023-05-22T12:34:21.473Z,1.90
2023-05-22T12:36:48.430Z,1.75
2023-05-22T12:39:19.072Z,2.20
2023-05-22T12:41:46.541Z,2.17
2023-05-22T12:44:16.481Z,1.92
2023-05-22T12:46:43.656Z,3.40
2023-05-22T12:49:11.018Z,2.10
2023-05-22T12:51:37.745Z,1.98
2023-05-22T12:54:04.853Z,1.98
2023-05-22T12:56:31.933Z,2.22
2023-05-22T12:58:58.881Z,1.90
2023-05-22T13:01:26.358Z,1.98
2023-05-22T13:03:53.340Z,2.20
2023-05-22T13:06:20.631Z,2.28
2023-05-22T13:08:47.439Z,2.22
2023-05-22T13:11:14.188Z,2.08
2023-05-22T13:13:41.094Z,2.28
2023-05-22T13:16:09.127Z,2.13
2023-05-22T13:18:35.919Z,2.25
2023-05-22T13:21:02.694Z,2.15
2023-05-22T13:23:29.333Z,2.20
2023-05-22T13:25:56.050Z,2.05
2023-05-22T13:28:22.786Z,2.17
2023-05-22T13:30:49.453Z,2.35
2023-05-22T13:33:16.489Z,2.25
2023-05-22T13:35:43.176Z,2.60
2023-05-22T13:38:09.878Z,2.55
2023-05-22T13:40:37.052Z,2.22
2023-05-22T13:43:03.751Z,1.95
2023-05-22T13:45:31.286Z,1.95
2023-05-22T13:47:58.014Z,2.22
2023-05-22T13:50:24.737Z,2.10
2023-05-22T13:52:51.457Z,2.50
2023-05-22T13:55:18.170Z,1.98
2023-05-22T13:57:44.866Z,1.88
2023-05-22T14:00:12.872Z,2.35
2023-05-22T14:02:39.653Z,1.98
2023-05-22T14:05:06.877Z,2.17
2023-05-22T14:07:33.628Z,2.05
2023-05-22T14:10:01.533Z,1.98
2023-05-22T14:12:28.644Z,2.22
2023-05-22T14:14:55.404Z,2.53
2023-05-22T14:17:22.201Z,1.95
2023-05-22T14:19:48.930Z,1.90
2023-05-22T14:22:15.651Z,1.52
2023-05-22T14:24:42.824Z,1.88
2023-05-22T14:27:10.171Z,1.92
2023-05-22T14:29:37.033Z,1.85
2023-05-22T14:32:05.476Z,2.05
2023-05-22T14:34:32.748Z,2.20
2023-05-22T14:36:59.513Z,2.28
2023-05-22T14:39:26.304Z,2.38
2023-05-22T14:41:53.922Z,2.65
2023-05-22T14:44:22.599Z,2.30
2023-05-22T14:46:51.238Z,2.00
2023-05-22T14:49:18.399Z,2.38
2023-05-22T14:51:48.390Z,2.08
2023-05-22T14:54:19.299Z,1.90
2023-05-22T14:56:46.596Z,2.03
2023-05-22T14:59:14.355Z,2.00
2023-05-22T15:01:41.507Z,2.17
2023-05-22T15:04:09.042Z,2.35
2023-05-22T15:06:36.306Z,2.25
2023-05-22T15:09:03.496Z,2.53
2023-05-22T15:11:30.379Z,2.30
2023-05-22T15:13:57.220Z,2.35
2023-05-22T15:16:26.014Z,2.60
2023-05-22T15:18:52.917Z,2.78
2023-05-22T15:21:19.769Z,2.28
2023-05-22T15:23:47.312Z,2.50
2023-05-22T15:26:13.989Z,2.03
2023-05-22T15:28:41.017Z,3.17
2023-05-22T15:31:07.726Z,2.25
2023-05-22T15:33:34.472Z,2.25
2023-05-22T15:36:01.309Z,2.40
2023-05-22T15:38:31.245Z,2.47
2023-05-22T15:40:59.204Z,2.38
2023-05-22T15:43:28.075Z,2.17
2023-05-22T15:45:57.042Z,1.83
2023-05-22T15:48:25.412Z,2.63
2023-05-22T15:50:53.380Z,2.35
2023-05-22T15:53:22.124Z,1.83
2023-05-22T15:55:51.224Z,2.53
2023-05-22T15:58:18.229Z,1.98
2023-05-22T16:00:45.434Z,2.67
2023-05-22T16:03:13.093Z,2.60
2023-05-22T16:05:41.507Z,2.60
2023-05-22T16:08:11.975Z,2.33
2023-05-22T16:10:41.633Z,2.20
2023-05-22T16:13:10.692Z,2.28
2023-05-22T16:15:39.813Z,2.38
2023-05-22T16:18:07.618Z,2.42
2023-05-22T16:20:35.552Z,2.83
2023-05-22T16:23:02.481Z,2.00
2023-05-22T16:25:29.162Z,2.10
2023-05-22T16:27:56.560Z,3.08
2023-05-22T16:30:23.250Z,2.50
2023-05-22T16:32:50.029Z,2.50
2023-05-22T16:35:16.923Z,2.58
2023-05-22T16:37:43.643Z,2.80
2023-05-22T16:40:11.027Z,2.42
2023-05-22T16:42:43.034Z,3.15
2023-05-22T16:45:09.798Z,2.60
2023-05-22T16:47:36.521Z,2.92
2023-05-22T16:50:03.553Z,2.83
2023-05-22T16:52:30.793Z,3.05
2023-05-22T16:54:57.807Z,2.90
2023-05-22T16:57:27.562Z,2.42
2023-05-22T16:59:56.420Z,2.05
2023-05-22T17:02:24.573Z,2.65
2023-05-22T17:04:51.363Z,2.38
2023-05-22T17:07:18.232Z,2.10
2023-05-22T17:09:44.952Z,2.28
2023-05-22T17:12:11.650Z,2.28
2023-05-22T17:14:38.408Z,2.22
2023-05-22T17:17:05.312Z,2.20
2023-05-22T17:19:32.514Z,2.80
2023-05-22T17:21:59.350Z,2.17
2023-05-22T17:24:27.860Z,2.20
2023-05-22T17:26:54.614Z,2.08
2023-05-22T17:29:21.300Z,1.90
2023-05-22T17:31:48.197Z,2.30
2023-05-22T17:34:14.962Z,2.53
2023-05-22T17:36:43.298Z,2.75
2023-05-22T17:39:11.551Z,2.10
2023-05-22T17:41:38.361Z,2.00
2023-05-22T17:44:05.081Z,2.10
2023-05-22T17:46:32.136Z,1.88
2023-05-22T17:48:58.971Z,2.03
2023-05-22T17:51:25.732Z,2.78
2023-05-22T17:53:56.111Z,2.13
2023-05-22T17:56:23.618Z,1.85
2023-05-22T17:58:50.904Z,2.50
2023-05-22T18:01:18.663Z,2.13
2023-05-22T18:03:46.289Z,1.80
2023-05-22T18:06:13.389Z,1.77
2023-05-22T18:08:40.766Z,2.28
2023-05-22T18:11:07.469Z,1.90
2023-05-22T18:13:34.216Z,2.30
2023-05-22T18:16:02.367Z,1.95
2023-05-22T18:18:29.059Z,2.53
2023-05-22T18:20:58.624Z,1.65
2023-05-22T18:23:25.480Z,2.50
2023-05-22T18:25:52.373Z,2.38
2023-05-22T18:28:20.929Z,2.33
2023-05-22T18:30:49.684Z,1.70
2023-05-22T18:33:16.668Z,2.08
2023-05-22T18:35:43.732Z,2.28
2023-05-22T18:38:10.513Z,1.98
2023-05-22T18:40:37.237Z,1.80
2023-05-22T18:43:03.971Z,1.80
2023-05-22T18:45:30.651Z,2.15
2023-05-22T18:47:57.326Z,1.92
2023-05-22T18:50:24.160Z,2.78
2023-05-22T18:52:50.927Z,2.55
2023-05-22T18:55:17.619Z,2.25
2023-05-22T18:57:44.345Z,2.85
2023-05-22T19:00:11.326Z,2.42
2023-05-22T19:02:38.030Z,3.63
2023-05-22T19:05:05.254Z,2.58
2023-05-22T19:07:32.033Z,2.70
2023-05-22T19:09:59.242Z,2.50
2023-05-22T19:12:28.422Z,2.53
2023-05-22T19:14:55.065Z,3.03
2023-05-22T19:17:21.820Z,3.20
2023-05-22T19:19:48.542Z,3.20
2023-05-22T19:22:17.830Z,2.95
2023-05-22T19:24:45.008Z,3.38
2023-05-22T19:27:11.721Z,3.95
2023-05-22T19:29:38.433Z,3.05
2023-05-22T19:32:05.595Z,3.40
2023-05-22T19:34:32.343Z,3.15
2023-05-22T19:36:59.059Z,4.03
2023-05-22T19:39:25.944Z,2.83
2023-05-22T19:41:52.991Z,3.22
2023-05-22T19:44:19.650Z,2.65
2023-05-22T19:46:46.676Z,3.25
2023-05-22T19:49:13.659Z,2.15
2023-05-22T19:51:40.953Z,2.97
2023-05-22T19:54:07.714Z,2.80
2023-05-22T19:56:35.765Z,2.80
2023-05-22T19:59:02.460Z,3.28
2023-05-22T20:01:29.179Z,3.13
2023-05-22T20:03:56.310Z,2.53
2023-05-22T20:06:23.171Z,3.35
2023-05-22T20:08:49.832Z,2.83
2023-05-22T20:11:16.551Z,3.22
2023-05-22T20:13:43.208Z,2.70
2023-05-22T20:16:12.754Z,3.47
2023-05-22T20:18:41.179Z,3.13
2023-05-22T20:21:08.178Z,3.28
2023-05-22T20:23:34.941Z,3.00
2023-05-22T20:26:01.654Z,2.53
2023-05-22T20:28:28.533Z,2.67
2023-05-22T20:30:55.193Z,3.42
2023-05-22T20:33:22.055Z,2.70
2023-05-22T20:35:52.875Z,3.35
2023-05-22T20:38:20.066Z,3.03
2023-05-22T20:40:47.905Z,2.60
2023-05-22T20:43:15.143Z,3.33
2023-05-22T20:45:45.978Z,3.00
2023-05-22T20:48:13.852Z,3.22
2023-05-22T20:50:42.305Z,3.17
2023-05-22T20:53:09.098Z,2.88
2023-05-22T20:55:35.870Z,3.42
2023-05-22T20:58:02.597Z,4.72
2023-05-22T21:00:30.076Z,3.38
2023-05-22T21:02:58.341Z,3.00
2023-05-22T21:05:26.350Z,3.47
2023-05-22T21:07:53.148Z,2.97
2023-05-22T21:10:19.885Z,3.15
2023-05-22T21:12:46.622Z,2.95
2023-05-22T21:15:13.316Z,3.35
2023-05-22T21:17:40.287Z,2.85
2023-05-22T21:20:08.153Z,2.72
2023-05-22T21:22:34.860Z,2.92
2023-05-22T21:25:01.598Z,3.08
2023-05-22T21:27:28.305Z,2.90
2023-05-22T21:29:54.970Z,3.10
2023-05-22T21:32:21.668Z,2.65
2023-05-22T21:34:48.328Z,2.72
2023-05-22T21:37:15.017Z,3.60
2023-05-22T21:39:41.780Z,3.83
2023-05-22T21:42:08.878Z,3.05
2023-05-22T21:44:36.011Z,2.55
2023-05-22T21:47:02.833Z,2.92
2023-05-22T21:49:29.509Z,3.20
2023-05-22T21:51:56.180Z,3.83
2023-05-22T21:54:22.933Z,3.80
2023-05-22T21:56:49.644Z,2.70
2023-05-22T21:59:16.380Z,2.95
2023-05-22T22:01:43.205Z,3.88
2023-05-22T22:04:09.995Z,2.30
2023-05-22T22:06:37.050Z,2.58
2023-05-22T22:09:03.990Z,2.40
2023-05-22T22:11:30.787Z,3.28
2023-05-22T22:13:57.510Z,2.67
2023-05-22T22:16:24.536Z,3.30
2023-05-22T22:18:51.529Z,2.95
2023-05-22T22:21:18.311Z,2.30
2023-05-22T22:23:45.033Z,2.40
2023-05-22T22:26:14.514Z,2.67
2023-05-22T22:28:41.186Z,2.25
2023-05-22T22:31:07.876Z,1.98
2023-05-22T22:33:34.674Z,2.00
2023-05-22T22:36:01.922Z,2.50
2023-05-22T22:38:28.940Z,2.88
2023-05-22T22:40:55.728Z,2.05
2023-05-22T22:43:22.393Z,2.70
2023-05-22T22:45:49.102Z,1.95
2023-05-22T22:48:16.706Z,2.60
2023-05-22T22:50:44.139Z,2.20
2023-05-22T22:53:12.482Z,2.30
2023-05-22T22:55:39.596Z,2.78
2023-05-22T22:58:07.910Z,2.67
2023-05-22T23:00:34.584Z,2.05
2023-05-22T23:03:01.320Z,2.10
2023-05-22T23:05:28.280Z,2.40
2023-05-22T23:07:56.079Z,2.75
2023-05-22T23:10:22.851Z,2.65
2023-05-22T23:12:50.279Z,2.55
2023-05-22T23:15:17.220Z,2.47
2023-05-22T23:17:43.944Z,2.97
2023-05-22T23:20:11.062Z,3.00
2023-05-22T23:22:37.847Z,2.35
2023-05-22T23:25:04.889Z,2.55
2023-05-22T23:27:31.806Z,2.58
2023-05-22T23:29:58.533Z,3.00
2023-05-22T23:32:25.298Z,2.67
2023-05-22T23:34:52.131Z,3.33
2023-05-22T23:37:18.854Z,2.55
2023-05-22T23:39:45.554Z,2.80
2023-05-22T23:42:12.278Z,2.33
2023-05-22T23:44:39.040Z,3.03
2023-05-22T23:47:06.706Z,2.42
2023-05-22T23:49:33.668Z,2.20
2023-05-22T23:52:00.429Z,2.35
2023-05-22T23:54:27.112Z,2.50
2023-05-22T23:56:53.803Z,2.20
2023-05-22T23:59:22.001Z,2.75
